This is the latest recevied weather packets stored in our database for station/object WX7FGZ-7. If no packets are shown the sender has not sent any weather packets the latest 10 day(s).
| Time | Temp. | Humidity | Pressure | Rain* | Wind** | Luminosity | Snow |
|---|---|---|---|---|---|---|---|
| 1777791718 | 12.22° C | 31% | 1019.5 hPa | 0 mm | - | - | - |
| 1777791676 | 12.22° C | 31% | 1019.5 hPa | 0 mm | - | - | - |
| 1777791076 | 12.22° C | 32% | 1019.6 hPa | 0 mm | - | - | - |
| 1777789279 | 12.22° C | 32% | 1019.5 hPa | 0 mm | - | - | - |
| 1777788976 | 12.22° C | 32% | 1019.4 hPa | 0 mm | - | - | - |
| 1777788676 | 12.22° C | 32% | 1019.4 hPa | 0 mm | - | - | - |
| 1777788077 | 12.22° C | 32% | 1019.5 hPa | 0 mm | - | - | - |
| 1777787545 | 12.22° C | 32% | 1019.3 hPa | 0 mm | - | - | - |
| 1777787511 | 12.22° C | 32% | 1019.3 hPa | 0 mm | - | - | - |
| 1777787176 | 12.22° C | 32% | 1019.3 hPa | 0 mm | - | - | - |
| 1777786287 | 12.22° C | 32% | 1019.2 hPa | 0 mm | - | - | - |
| 1777785381 | 12.22° C | 32% | 1019.3 hPa | 0 mm | - | - | - |
| 1777785087 | 11.67° C | 32% | 1019.3 hPa | 0 mm | - | - | - |
| 1777784776 | 11.67° C | 32% | 1019.3 hPa | 0 mm | - | - | - |
| 1777784476 | 11.67° C | 32% | 1019.2 hPa | 0 mm | - | - | - |
| 1777783576 | 11.67° C | 32% | 1019.1 hPa | 0 mm | - | - | - |
| 1777783279 | 11.67° C | 31% | 1019.1 hPa | 0 mm | - | - | - |
| 1777782676 | 11.67° C | 31% | 1019 hPa | 0 mm | - | - | - |
| 1777782377 | 11.67° C | 32% | 1019 hPa | 0 mm | - | - | - |
| 1777779376 | 12.78° C | 31% | 1018.5 hPa | 0 mm | - | - | - |
| 1777778471 | 13.89° C | 30% | 1018.3 hPa | 0 mm | - | - | - |
| 1777778179 | 13.89° C | 30% | 1018.3 hPa | 0 mm | - | - | - |
| 1777777876 | 14.44° C | 30% | 1018.3 hPa | 0 mm | - | - | - |
| 1777777578 | 14.44° C | 29% | 1018.2 hPa | 0 mm | - | - | - |
| 1777775883 | 16.67° C | 26% | 1017.8 hPa | 0 mm | - | - | - |
* Rain latest hour (hover to see other rain measurements)
** Current wind speed in m/s (hover to see current wind gust speed)